Allegheny, Pennsylvania
Current Conditions -  °F | °C
As of 4:53 PM on Saturday 25 Oct 2014 (Local Time) from KAGC Reporting Station
Few Clouds Few Clouds  
Wind Chill: 65°   Ceiling: Unl
Heat Index: 65°   Visibility: 10mi
Dew Point: 47°   Wind: 17mph
Humidity: 52%   Direction: 250°WSW
Pressure: 29.77"   Gusts: 30mph
Location:  40.4725°N, 80.0082°W
Report Text: KAGC 252053Z 25015G26KT 10SM FEW037 18/08 A2977 RMK AO2 PK WND 23026/2049 SLP083 T01830083 56019
Loading
Personal Weather Stations






























Interactive Weather Map
Tropical Storm Tracking
New forecast layout! Learn more

10-Day Weather Forecast

Advertisements
Track Severe Weather on mobile